Time;durP1;ratioP1;P1;durP2;ratioP2;P2;SDS_P1;SDS_P2;PMS_P1;PMS_P2;Temp;Humidity;BMP_temperature;BMP_pressure;BME280_temperature;BME280_humidity;BME280_pressure;Samples;Min_cycle;Max_cycle;Signal;HPM_P1;HPM_P2
2021/06/12 00:01:28;;;;;;;10.35;7.42;;;;;;;15.66;72.03;101092.84;1763544;80;21749;-85
2021/06/12 00:03:55;;;;;;;9.35;8.40;;;;;;;15.63;72.04;101088.36;1763152;80;21067;-85
2021/06/12 00:06:22;;;;;;;9.28;7.50;;;;;;;15.59;72.05;101087.89;1737232;81;21165;-85
2021/06/12 00:08:49;;;;;;;9.80;8.70;;;;;;;15.54;72.13;101083.88;1768062;80;21035;-85
2021/06/12 00:11:15;;;;;;;9.05;7.97;;;;;;;15.50;72.14;101079.42;1747044;81;21124;-85
2021/06/12 00:13:42;;;;;;;11.65;7.95;;;;;;;15.47;72.21;101072.75;1762878;80;21737;-85
2021/06/12 00:16:09;;;;;;;10.03;7.90;;;;;;;15.43;72.30;101070.95;1762935;80;21052;-85
2021/06/12 00:18:36;;;;;;;10.48;7.90;;;;;;;15.40;72.32;101071.34;1750283;81;21089;-83
2021/06/12 00:21:03;;;;;;;10.90;7.75;;;;;;;15.38;72.40;101064.70;1750472;80;21098;-84
2021/06/12 00:23:29;;;;;;;9.53;7.80;;;;;;;15.34;72.48;101063.77;1760079;80;21590;-84
2021/06/12 00:25:56;;;;;;;8.43;7.25;;;;;;;15.33;72.54;101063.34;1764261;80;21739;-84
2021/06/12 00:28:23;;;;;;;9.05;8.03;;;;;;;15.32;72.57;101072.15;1763890;80;21026;-84
2021/06/12 00:30:50;;;;;;;8.93;8.03;;;;;;;15.30;72.62;101067.72;1763693;80;21568;-84
2021/06/12 00:33:17;;;;;;;13.62;8.60;;;;;;;15.27;72.66;101062.37;1764636;80;21153;-84
2021/06/12 00:35:43;;;;;;;10.38;8.83;;;;;;;15.24;72.75;101064.97;1763690;81;21576;-84
2021/06/12 00:38:10;;;;;;;10.23;8.18;;;;;;;15.21;72.86;101062.31;1760448;81;21746;-84
2021/06/12 00:40:37;;;;;;;12.35;8.23;;;;;;;15.17;72.80;101054.75;1763354;81;21028;-84
2021/06/12 00:43:04;;;;;;;11.85;9.00;;;;;;;15.15;72.91;101053.85;1760036;81;21098;-84
2021/06/12 00:45:31;;;;;;;12.40;9.03;;;;;;;15.11;72.91;101058.23;1763706;81;21046;-85
2021/06/12 00:47:58;;;;;;;10.18;8.93;;;;;;;15.09;73.00;101050.70;1767675;81;21092;-85
2021/06/12 00:50:29;;;;;;;9.60;8.53;;;;;;;15.08;73.08;101050.67;1765343;81;21753;-84
2021/06/12 00:52:56;;;;;;;10.58;8.53;;;;;;;15.06;73.14;101058.61;1750683;81;21033;-85
2021/06/12 00:55:23;;;;;;;11.00;8.03;;;;;;;15.06;73.22;101048.00;1762728;81;21072;-83
2021/06/12 00:57:50;;;;;;;9.63;8.63;;;;;;;15.04;73.25;101040.91;1762670;81;21090;-85
2021/06/12 01:00:19;;;;;;;10.82;8.63;;;;;;;15.03;73.27;101034.70;1760987;81;21079;-84
2021/06/12 01:02:50;;;;;;;9.70;8.70;;;;;;;15.03;73.30;101036.47;1738918;81;21045;-83
2021/06/12 01:05:20;;;;;;;10.35;8.70;;;;;;;15.01;73.34;101039.09;1765100;81;21079;-83
2021/06/12 01:07:47;;;;;;;9.83;7.87;;;;;;;14.99;73.41;101037.31;1766682;81;21114;-84
2021/06/12 01:10:16;;;;;;;11.28;8.25;;;;;;;14.96;73.39;101028.45;1760127;81;21027;-84
2021/06/12 01:13:23;;;;;;;9.60;8.18;;;;;;;14.96;73.44;101027.13;1761695;81;21090;-84
2021/06/12 01:16:03;;;;;;;9.98;8.05;;;;;;;14.96;73.47;101021.83;1769183;80;21736;-84
2021/06/12 01:18:33;;;;;;;10.72;8.38;;;;;;;14.97;73.46;101017.41;1750719;81;21055;-84
2021/06/12 01:21:29;;;;;;;8.08;7.28;;;;;;;14.97;73.47;101017.41;1767559;81;21548;-84
2021/06/12 01:24:38;;;;;;;10.50;7.72;;;;;;;14.97;73.44;101010.34;1735933;82;21029;-84
2021/06/12 01:27:30;;;;;;;13.15;7.85;;;;;;;14.98;73.45;101013.90;1770464;80;21006;-84
2021/06/12 01:30:20;;;;;;;11.50;8.08;;;;;;;14.97;73.40;101011.66;1770838;80;21774;-84
2021/06/12 01:32:51;;;;;;;8.35;7.50;;;;;;;14.95;73.40;101009.43;1762504;80;21066;-84
2021/06/12 01:35:32;;;;;;;10.70;7.37;;;;;;;14.95;73.39;101011.20;1763669;81;21089;-84
2021/06/12 01:37:59;;;;;;;8.93;7.17;;;;;;;14.93;73.35;101008.97;1760276;81;21067;-84
2021/06/12 01:40:30;;;;;;;10.20;7.92;;;;;;;14.91;73.33;101002.77;1758239;81;21054;-84
2021/06/12 01:42:56;;;;;;;10.48;7.90;;;;;;;14.88;73.34;100999.63;1753679;81;21852;-83
2021/06/12 01:45:23;;;;;;;10.00;7.60;;;;;;;14.85;73.33;101002.70;1755302;81;21156;-84
2021/06/12 01:47:52;;;;;;;8.50;7.20;;;;;;;14.82;73.38;101006.19;1761948;81;21077;-84
2021/06/12 01:50:19;;;;;;;9.85;8.10;;;;;;;14.78;73.40;101005.27;1755543;81;21060;-84
2021/06/12 01:52:47;;;;;;;9.10;8.20;;;;;;;14.74;73.43;101000.80;1736878;81;37648;-84
2021/06/12 01:55:14;;;;;;;8.55;7.70;;;;;;;14.73;73.50;101003.43;1736673;81;21902;-84
2021/06/12 01:57:58;;;;;;;8.80;7.90;;;;;;;14.68;73.56;100998.53;1754206;81;21047;-84
2021/06/12 02:00:27;;;;;;;10.00;7.62;;;;;;;14.66;73.71;100992.30;1757881;81;21024;-84
2021/06/12 02:02:53;;;;;;;8.53;7.67;;;;;;;14.65;73.76;100990.09;1757978;81;21015;-84
2021/06/12 02:05:22;;;;;;;13.32;7.92;;;;;;;14.62;73.77;100991.81;1753986;81;21038;-84
2021/06/12 02:07:49;;;;;;;10.32;7.50;;;;;;;14.58;73.83;100988.23;1754002;81;22819;-85
2021/06/12 02:10:25;;;;;;;11.25;7.83;;;;;;;14.58;73.90;100990.88;1753560;81;21026;-85
2021/06/12 02:12:52;;;;;;;9.20;7.72;;;;;;;14.59;74.04;100990.03;1753547;81;21062;-84
2021/06/12 02:15:19;;;;;;;8.70;7.60;;;;;;;14.61;74.02;100990.05;1754270;81;21591;-84
2021/06/12 02:17:46;;;;;;;9.25;8.10;;;;;;;14.60;74.00;100979.86;1754601;81;21090;-84
2021/06/12 02:20:16;;;;;;;10.25;7.87;;;;;;;14.61;73.98;100983.43;1753738;81;22791;-84
2021/06/12 02:22:48;;;;;;;9.35;8.28;;;;;;;14.64;74.06;100979.47;1754047;81;21066;-84
2021/06/12 02:25:15;;;;;;;9.40;8.45;;;;;;;14.68;74.09;100981.31;1754322;81;21234;-83
2021/06/12 02:27:49;;;;;;;9.45;8.08;;;;;;;14.72;74.08;100980.03;1753625;81;21576;-83
2021/06/12 02:30:17;;;;;;;13.48;9.28;;;;;;;14.80;74.08;100979.23;1754456;81;21535;-85
2021/06/12 02:32:47;;;;;;;10.32;8.40;;;;;;;14.80;73.99;100967.30;1762215;80;21720;-83
2021/06/12 02:35:14;;;;;;;10.72;8.33;;;;;;;14.92;73.85;100970.98;1773614;80;21072;-84
2021/06/12 02:37:43;;;;;;;12.28;8.73;;;;;;;14.99;73.78;100973.25;1767408;80;21109;-83
2021/06/12 02:40:13;;;;;;;8.45;7.50;;;;;;;15.05;73.69;100960.05;1738831;81;21087;-83
2021/06/12 02:42:38;;;;;;;9.40;8.43;;;;;;;15.15;73.60;100965.03;1741880;81;21600;-83
2021/06/12 02:45:07;;;;;;;14.65;9.15;;;;;;;15.23;73.43;100962.45;1694176;83;22384;-83
2021/06/12 02:47:54;;;;;;;9.55;8.18;;;;;;;15.33;73.33;100959.90;1704225;83;21061;-82
2021/06/12 02:50:24;;;;;;;8.75;7.85;;;;;;;15.43;73.16;100955.97;1707714;83;21841;-83
2021/06/12 02:52:52;;;;;;;9.45;8.53;;;;;;;15.52;72.96;100955.63;1707119;83;21056;-83
2021/06/12 02:55:20;;;;;;;11.65;8.48;;;;;;;15.64;72.75;100952.63;1747061;81;21600;-83
2021/06/12 02:57:48;;;;;;;10.78;8.03;;;;;;;15.73;72.57;100946.05;1774019;80;23217;-83
2021/06/12 03:00:25;;;;;;;11.55;7.42;;;;;;;15.83;72.42;100934.64;1764832;80;21055;-83
2021/06/12 03:02:53;;;;;;;9.75;7.83;;;;;;;16.00;72.31;100933.86;1749748;80;21070;-83
2021/06/12 03:05:23;;;;;;;14.13;8.63;;;;;;;16.17;72.06;100940.59;1768173;80;21063;-83
2021/06/12 03:07:53;;;;;;;8.10;7.25;;;;;;;16.33;71.90;100936.69;1750125;81;21103;-83
2021/06/12 03:10:25;;;;;;;7.90;7.10;;;;;;;16.52;71.58;100937.64;1759673;81;21745;-83
2021/06/12 03:12:51;;;;;;;7.78;6.65;;;;;;;16.70;71.19;100942.14;1762228;81;21074;-83
2021/06/12 03:15:18;;;;;;;9.25;5.97;;;;;;;16.87;70.96;100939.56;1735181;81;21632;-84
2021/06/12 03:17:46;;;;;;;10.45;7.00;;;;;;;17.06;70.60;100936.91;1696637;84;21040;-84
2021/06/12 03:20:15;;;;;;;7.12;6.15;;;;;;;17.24;70.40;100939.59;1736540;80;21015;-84
2021/06/12 03:22:44;;;;;;;8.00;6.33;;;;;;;17.41;70.14;100935.59;1767666;80;21756;-83
2021/06/12 03:25:12;;;;;;;7.17;6.47;;;;;;;17.59;69.76;100942.70;1750647;81;20941;-84
2021/06/12 03:27:41;;;;;;;6.60;6.00;;;;;;;17.78;69.58;100946.67;1764382;80;21059;-83
2021/06/12 03:30:08;;;;;;;8.70;6.05;;;;;;;18.09;69.40;100950.62;1751494;81;21032;-84
2021/06/12 03:32:35;;;;;;;7.70;6.20;;;;;;;18.47;69.03;100949.17;1689067;83;21130;-84
2021/06/12 03:35:03;;;;;;;9.40;5.83;;;;;;;18.70;68.33;100945.52;1767857;80;21792;-84
2021/06/12 03:37:30;;;;;;;7.85;5.60;;;;;;;18.84;67.77;100938.33;1742593;81;21108;-84
2021/06/12 03:39:57;;;;;;;6.90;6.20;;;;;;;18.87;67.14;100940.99;1753837;80;21019;-84
2021/06/12 03:42:29;;;;;;;7.50;5.45;;;;;;;18.80;66.79;100947.22;1776867;80;21120;-84
2021/06/12 03:44:55;;;;;;;6.35;5.22;;;;;;;18.77;66.75;100937.47;1775967;79;21014;-84
2021/06/12 03:47:23;;;;;;;8.03;5.62;;;;;;;18.81;66.61;100937.91;1774206;80;22421;-84
2021/06/12 03:49:51;;;;;;;13.15;6.05;;;;;;;18.88;66.58;100936.53;1774634;80;21528;-84
2021/06/12 03:52:23;;;;;;;8.35;5.35;;;;;;;19.01;66.56;100933.80;1773340;80;21109;-84
2021/06/12 03:54:51;;;;;;;7.83;5.15;;;;;;;19.26;66.43;100935.37;1773386;80;21121;-84
2021/06/12 03:57:19;;;;;;;6.95;5.03;;;;;;;19.79;66.77;100929.59;1775215;80;21519;-84
2021/06/12 03:59:46;;;;;;;6.55;5.00;;;;;;;20.46;66.70;100928.39;1774477;80;22452;-84
2021/06/12 04:02:17;;;;;;;6.08;4.65;;;;;;;22.10;67.49;100926.66;1772764;80;21074;-84
2021/06/12 04:04:47;;;;;;;9.03;4.55;;;;;;;24.32;66.51;100917.28;1706636;82;21105;-84
2021/06/12 04:07:16;;;;;;;6.62;4.70;;;;;;;26.57;63.77;100915.99;1767564;80;21145;-85
2021/06/12 04:09:42;;;;;;;5.80;4.62;;;;;;;28.01;60.34;100913.20;1772207;80;21030;-83
2021/06/12 04:12:10;;;;;;;7.17;4.70;;;;;;;28.75;57.26;100911.61;1770603;80;21668;-82
2021/06/12 04:14:37;;;;;;;5.55;4.65;;;;;;;28.02;54.55;100899.19;1771799;80;21074;-83
2021/06/12 04:17:04;;;;;;;5.72;3.87;;;;;;;27.08;53.84;100907.24;1756011;81;21061;-83
2021/06/12 04:19:33;;;;;;;4.40;3.60;;;;;;;26.30;53.86;100900.41;1750746;81;21071;-83
2021/06/12 04:22:00;;;;;;;4.15;3.75;;;;;;;25.67;53.72;100892.77;1758368;81;21145;-83
2021/06/12 04:24:27;;;;;;;5.05;3.67;;;;;;;25.11;53.90;100895.56;1764695;80;21687;-83
2021/06/12 04:26:57;;;;;;;4.70;3.72;;;;;;;24.70;54.04;100891.05;1771947;80;21151;-85
2021/06/12 04:29:23;;;;;;;3.90;3.47;;;;;;;24.49;54.20;100885.84;1770663;80;21059;-83
2021/06/12 04:31:53;;;;;;;4.25;3.85;;;;;;;24.31;54.29;100886.82;1772043;80;21077;-82
2021/06/12 04:34:22;;;;;;;5.45;4.28;;;;;;;24.56;54.58;100888.32;1756743;81;21098;-82
2021/06/12 04:36:49;;;;;;;4.40;3.58;;;;;;;24.65;53.99;100884.47;1756275;80;21815;-82
2021/06/12 04:39:16;;;;;;;5.83;4.12;;;;;;;24.77;53.95;100885.89;1740179;81;21508;-82
2021/06/12 04:41:43;;;;;;;5.00;3.98;;;;;;;25.22;53.99;100880.80;1695470;83;21106;-84
2021/06/12 04:44:09;;;;;;;4.92;4.30;;;;;;;25.46;53.00;100878.23;1695884;83;21481;-82
2021/06/12 04:46:36;;;;;;;5.97;4.12;;;;;;;25.27;52.62;100868.56;1741004;81;21155;-82
2021/06/12 04:49:06;;;;;;;5.20;4.37;;;;;;;25.10;52.73;100872.27;1762702;79;21186;-82
2021/06/12 04:51:33;;;;;;;5.72;4.20;;;;;;;25.05;52.58;100870.19;1751542;80;21079;-82
2021/06/12 04:54:00;;;;;;;6.33;3.98;;;;;;;25.26;52.64;100868.13;1758229;80;21066;-81
2021/06/12 04:56:28;;;;;;;6.05;4.03;;;;;;;25.55;52.96;100860.39;1758589;80;21750;-82
2021/06/12 04:58:55;;;;;;;5.87;4.08;;;;;;;26.21;52.33;100859.80;1756448;80;21592;-81
2021/06/12 05:01:29;;;;;;;5.33;3.55;;;;;;;26.22;51.13;100853.93;1761586;80;21058;-81
2021/06/12 05:04:01;;;;;;;4.40;4.00;;;;;;;25.89;50.91;100864.56;1756528;80;21643;-81
2021/06/12 05:06:29;;;;;;;7.15;3.80;;;;;;;25.59;50.75;100852.61;1756790;80;21118;-81
2021/06/12 05:08:58;;;;;;;7.92;4.40;;;;;;;25.31;50.93;100857.22;1758216;80;21548;-81
2021/06/12 05:11:27;;;;;;;5.33;4.60;;;;;;;25.14;51.11;100846.98;1763089;81;21108;-81
2021/06/12 05:13:55;;;;;;;5.55;3.83;;;;;;;24.94;51.23;100851.69;1763219;81;21970;-81
2021/06/12 05:16:22;;;;;;;4.33;3.92;;;;;;;24.68;51.19;100842.64;1763133;81;21007;-81
2021/06/12 05:18:49;;;;;;;6.65;4.40;;;;;;;24.40;51.45;100835.87;1763185;80;21069;-81
2021/06/12 05:21:16;;;;;;;4.22;3.83;;;;;;;24.20;51.61;100834.69;1758695;80;21054;-81
2021/06/12 05:23:43;;;;;;;4.75;4.08;;;;;;;24.09;52.05;100831.44;1759817;80;21058;-81
2021/06/12 05:26:11;;;;;;;7.30;4.42;;;;;;;24.12;52.28;100833.14;1760722;80;21864;-81
2021/06/12 05:28:41;;;;;;;4.80;4.33;;;;;;;24.17;52.32;100832.08;1737802;81;21081;-81
2021/06/12 05:31:11;;;;;;;4.45;3.90;;;;;;;24.13;52.36;100830.41;1756406;81;21000;-81
2021/06/12 05:33:49;;;;;;;4.83;3.70;;;;;;;24.08;52.42;100830.13;1742127;80;21583;-81
2021/06/12 05:36:18;;;;;;;9.58;3.95;;;;;;;23.96;52.57;100824.19;1723149;81;21070;-81
2021/06/12 05:38:44;;;;;;;6.00;3.90;;;;;;;23.88;52.79;100824.02;1723358;82;21989;-81
2021/06/12 05:41:11;;;;;;;5.55;3.85;;;;;;;23.80;53.00;100814.80;1725523;81;20988;-81
2021/06/12 05:43:39;;;;;;;5.45;4.15;;;;;;;23.82;53.16;100817.02;1763756;80;21066;-80
2021/06/12 05:46:06;;;;;;;5.83;3.50;;;;;;;23.78;53.32;100815.28;1763554;81;21070;-81
2021/06/12 05:48:33;;;;;;;3.92;3.52;;;;;;;23.85;53.70;100809.71;1747263;81;21115;-81
2021/06/12 05:50:59;;;;;;;7.53;3.87;;;;;;;24.01;53.75;100804.78;1738971;81;21749;-81
2021/06/12 05:53:26;;;;;;;4.33;3.90;;;;;;;24.29;53.81;100802.59;1763926;81;21090;-81
2021/06/12 05:55:53;;;;;;;5.47;3.85;;;;;;;24.47;53.51;100797.56;1763836;81;21058;-81
2021/06/12 05:58:20;;;;;;;6.97;4.22;;;;;;;24.62;53.17;100796.62;1764212;81;21228;-81
2021/06/12 06:00:47;;;;;;;7.67;3.52;;;;;;;24.69;52.85;100803.17;1763960;80;21070;-81
2021/06/12 06:03:15;;;;;;;5.20;3.42;;;;;;;24.87;52.90;100803.00;1764057;80;22186;-81
2021/06/12 06:05:42;;;;;;;4.25;3.55;;;;;;;25.12;52.89;100798.55;1760693;81;21063;-80
2021/06/12 06:08:09;;;;;;;7.20;3.50;;;;;;;25.53;52.86;100800.28;1755518;81;21573;-81
2021/06/12 06:10:36;;;;;;;6.58;3.58;;;;;;;25.89;52.47;100789.05;1721367;81;21529;-80
2021/06/12 06:13:03;;;;;;;7.08;4.17;;;;;;;26.10;52.04;100782.45;1734648;81;21067;-80
2021/06/12 06:15:30;;;;;;;6.70;3.77;;;;;;;26.14;51.51;100778.69;1731533;82;21737;-84
2021/06/12 06:17:59;;;;;;;4.28;3.60;;;;;;;26.03;51.32;100780.45;1724630;82;21062;-85
2021/06/12 06:20:26;;;;;;;4.55;3.20;;;;;;;25.84;51.06;100772.16;1724125;83;21607;-84
2021/06/12 06:22:52;;;;;;;4.33;3.47;;;;;;;25.64;51.26;100782.81;1740167;81;21640;-85
2021/06/12 06:25:19;;;;;;;5.20;2.87;;;;;;;25.48;51.48;100782.04;1744605;81;21094;-84
2021/06/12 06:27:46;;;;;;;3.75;2.50;;;;;;;25.38;51.46;100777.45;1746835;81;21788;-83
2021/06/12 06:30:35;;;;;;;7.25;2.37;;;;;;;25.21;51.67;100773.98;1746041;81;21019;-90
2021/06/12 06:33:02;;;;;;;15.38;2.50;;;;;;;25.25;51.91;100776.62;1743023;81;21134;-86
2021/06/12 06:35:29;;;;;;;5.75;3.58;;;;;;;25.38;51.96;100772.06;1760470;81;21014;-84
2021/06/12 06:37:56;;;;;;;5.42;2.22;;;;;;;25.50;51.65;100769.86;1758786;81;21081;-83
2021/06/12 06:40:22;;;;;;;5.45;3.60;;;;;;;25.58;51.56;100770.45;1758884;81;22658;-82
2021/06/12 06:42:49;;;;;;;7.12;3.60;;;;;;;25.63;51.20;100769.81;1737273;80;21015;-82
2021/06/12 06:45:16;;;;;;;6.40;3.00;;;;;;;25.65;51.13;100761.68;1761317;81;21093;-82
2021/06/12 06:47:43;;;;;;;4.10;2.62;;;;;;;25.72;51.14;100756.47;1753613;81;21122;-81
2021/06/12 06:50:11;;;;;;;6.15;3.05;;;;;;;25.85;51.15;100760.94;1756426;80;21014;-81
2021/06/12 06:52:38;;;;;;;2.75;2.55;;;;;;;25.99;50.87;100756.77;1755585;81;21740;-81
2021/06/12 06:55:09;;;;;;;3.25;2.10;;;;;;;26.10;50.64;100748.26;1730231;80;21086;-81
2021/06/12 06:57:35;;;;;;;12.33;2.55;;;;;;;26.23;50.54;100747.30;1699215;83;21153;-82
2021/06/12 07:00:04;;;;;;;5.67;2.70;;;;;;;26.32;50.49;100737.48;1698259;84;21066;-81
2021/06/12 07:02:31;;;;;;;5.53;2.85;;;;;;;26.33;50.23;100739.27;1697956;83;21093;-82
2021/06/12 07:04:57;;;;;;;3.70;2.05;;;;;;;26.25;49.90;100737.80;1697807;83;22593;-82
2021/06/12 07:07:24;;;;;;;2.30;2.08;;;;;;;26.23;50.04;100736.98;1700086;84;21086;-83
2021/06/12 07:09:52;;;;;;;3.35;1.90;;;;;;;26.19;50.03;100737.10;1699029;84;21118;-86
2021/06/12 07:12:19;;;;;;;14.78;2.55;;;;;;;26.22;49.95;100738.78;1698538;83;21538;-84
2021/06/12 07:14:46;;;;;;;8.53;2.35;;;;;;;26.23;49.91;100738.34;1700213;84;21192;-83
2021/06/12 07:17:13;;;;;;;7.53;2.45;;;;;;;26.32;50.05;100739.32;1702098;83;22420;-83
2021/06/12 07:19:40;;;;;;;5.53;2.17;;;;;;;26.40;49.83;100736.30;1755487;81;21270;-84
2021/06/12 07:22:08;;;;;;;7.50;3.30;;;;;;;26.47;49.87;100729.72;1755274;81;22019;-84
2021/06/12 07:24:35;;;;;;;9.75;2.50;;;;;;;26.50;49.37;100733.61;1755154;81;21516;-84
2021/06/12 07:27:02;;;;;;;4.12;2.52;;;;;;;26.47;49.45;100730.58;1754852;81;21085;-83
2021/06/12 07:29:29;;;;;;;3.83;2.40;;;;;;;26.49;49.21;100719.73;1756932;81;21723;-84
2021/06/12 07:31:55;;;;;;;5.65;2.05;;;;;;;26.42;49.07;100720.44;1756388;81;21066;-84
2021/06/12 07:34:22;;;;;;;10.28;2.30;;;;;;;26.38;49.02;100718.34;1762199;80;21057;-84
2021/06/12 07:36:49;;;;;;;2.95;1.75;;;;;;;26.31;49.00;100720.00;1763474;80;21117;-83
2021/06/12 07:39:16;;;;;;;4.42;2.42;;;;;;;26.18;49.04;100715.13;1767291;80;21054;-83
2021/06/12 07:41:43;;;;;;;6.83;2.67;;;;;;;26.08;49.02;100707.45;1759712;80;21804;-82
2021/06/12 07:44:09;;;;;;;9.28;3.02;;;;;;;25.88;49.01;100707.73;1774001;80;21149;-83
2021/06/12 07:46:36;;;;;;;2.98;1.85;;;;;;;25.69;49.10;100701.31;1773694;80;21054;-83
2021/06/12 07:49:04;;;;;;;6.15;2.20;;;;;;;25.51;49.19;100698.39;1773650;80;20964;-83
2021/06/12 07:51:33;;;;;;;5.85;2.62;;;;;;;25.40;49.33;100696.09;1768985;79;21098;-83
2021/06/12 07:54:01;;;;;;;3.52;2.30;;;;;;;25.32;49.27;100707.64;1761274;81;21035;-83
2021/06/12 07:56:28;;;;;;;4.53;2.05;;;;;;;25.31;49.35;100698.26;1764078;80;21073;-83
2021/06/12 07:58:55;;;;;;;5.95;2.40;;;;;;;25.31;49.51;100693.73;1763608;80;21012;-83
2021/06/12 08:01:21;;;;;;;17.27;3.90;;;;;;;25.33;49.58;100693.21;1738049;81;21102;-83
2021/06/12 08:03:48;;;;;;;19.73;2.67;;;;;;;25.29;49.45;100690.70;1750698;80;21039;-83
2021/06/12 08:06:15;;;;;;;10.68;3.33;;;;;;;25.10;49.44;100691.34;1737007;80;21692;-83
2021/06/12 08:08:42;;;;;;;12.55;2.50;;;;;;;24.89;49.68;100690.75;1764324;80;21524;-83
2021/06/12 08:11:08;;;;;;;10.35;2.58;;;;;;;24.71;50.01;100686.91;1763982;79;21116;-83
2021/06/12 08:13:38;;;;;;;9.23;2.47;;;;;;;24.50;50.13;100681.30;1764323;80;21553;-83
2021/06/12 08:16:05;;;;;;;5.20;2.92;;;;;;;24.27;50.52;100691.48;1763497;80;21124;-83
2021/06/12 08:18:33;;;;;;;11.70;2.87;;;;;;;24.11;50.90;100692.44;1763008;80;21838;-83
2021/06/12 08:21:00;;;;;;;2.90;2.58;;;;;;;23.92;51.28;100676.01;1763798;80;21051;-83
2021/06/12 08:23:27;;;;;;;6.97;2.90;;;;;;;23.74;51.79;100682.79;1763332;80;21521;-83
2021/06/12 08:25:53;;;;;;;3.50;3.20;;;;;;;23.61;52.37;100682.75;1763879;80;21022;-83
2021/06/12 08:28:20;;;;;;;3.92;2.87;;;;;;;23.60;52.76;100691.75;1764290;80;21043;-83
2021/06/12 08:30:47;;;;;;;3.58;3.25;;;;;;;23.57;52.98;100687.33;1754708;80;21733;-83
2021/06/12 08:33:14;;;;;;;4.55;3.77;;;;;;;23.66;53.49;100687.53;1764507;80;21048;-83
2021/06/12 08:35:40;;;;;;;5.03;2.92;;;;;;;23.81;53.54;100688.44;1753005;79;21575;-83
2021/06/12 08:38:07;;;;;;;7.05;3.60;;;;;;;23.93;53.72;100691.23;1752213;81;21046;-82
2021/06/12 08:40:34;;;;;;;8.55;3.50;;;;;;;24.01;53.78;100697.23;1703125;84;21071;-83
2021/06/12 08:43:01;;;;;;;5.50;3.47;;;;;;;23.98;53.74;100704.03;1702990;84;21774;-83
2021/06/12 08:45:29;;;;;;;4.90;3.72;;;;;;;23.77;53.97;100706.03;1694032;84;21611;-83
2021/06/12 08:48:00;;;;;;;5.40;4.10;;;;;;;23.52;54.21;100707.20;1702919;84;21046;-83
2021/06/12 08:50:26;;;;;;;5.00;3.72;;;;;;;23.12;54.55;100684.19;1693444;83;21552;-83
2021/06/12 08:52:54;;;;;;;6.03;4.17;;;;;;;22.94;55.04;100705.66;1697368;83;21064;-82
2021/06/12 08:55:21;;;;;;;4.28;3.87;;;;;;;22.75;55.74;100733.01;1704937;83;22667;-83
2021/06/12 08:57:50;;;;;;;4.53;4.10;;;;;;;22.38;56.15;100668.68;1740050;80;21050;-83
2021/06/12 09:00:18;;;;;;;7.33;4.45;;;;;;;22.42;56.49;100706.56;1750986;81;21026;-83
2021/06/12 09:03:07;;;;;;;5.08;4.50;;;;;;;22.17;56.90;100684.34;1746070;81;21065;-83
2021/06/12 09:05:55;;;;;;;10.00;4.78;;;;;;;22.20;57.36;100703.02;1760095;81;21110;-83
2021/06/12 09:08:24;;;;;;;4.55;3.95;;;;;;;22.16;57.79;100708.50;1703472;84;21772;-83
2021/06/12 09:11:01;;;;;;;6.12;5.00;;;;;;;22.16;58.14;100699.12;1702891;84;21098;-82
2021/06/12 09:13:45;;;;;;;6.15;4.10;;;;;;;22.22;58.36;100701.17;1681837;84;21501;-83
2021/06/12 09:16:38;;;;;;;12.58;4.30;;;;;;;22.24;58.47;100682.38;1735161;82;21585;-85
2021/06/12 09:19:20;;;;;;;5.53;4.95;;;;;;;22.27;58.73;100678.32;1744025;81;21025;-82
2021/06/12 09:21:53;;;;;;;7.80;4.60;;;;;;;22.54;58.99;100673.18;1734596;82;22338;-81
2021/06/12 09:24:49;;;;;;;5.03;4.37;;;;;;;22.54;58.99;100673.18;1734324;82;21079;-83
2021/06/12 09:27:16;;;;;;;6.15;5.03;;;;;;;22.68;59.09;100679.08;1734106;82;21062;-82
2021/06/12 09:29:49;;;;;;;3.45;3.15;;;;;;;22.78;58.33;100652.41;1734538;82;21101;-82
2021/06/12 09:32:28;;;;;;;5.15;3.10;;;;;;;22.78;58.33;100652.41;1747967;81;21009;-82
2021/06/12 09:34:58;;;;;;;3.87;2.75;;;;;;;23.02;58.22;100675.48;1758634;80;22645;-84
2021/06/12 09:37:28;;;;;;;4.58;3.35;;;;;;;23.04;57.98;100672.32;1764334;80;21105;-83
2021/06/12 09:40:06;;;;;;;3.85;3.50;;;;;;;23.07;57.64;100675.80;1773406;80;21085;-84
2021/06/12 09:42:49;;;;;;;3.92;2.65;;;;;;;22.94;57.18;100664.95;1760554;80;21080;-82
2021/06/12 09:45:19;;;;;;;4.55;3.35;;;;;;;22.94;57.18;100664.95;1769324;80;21060;-84
2021/06/12 09:47:45;;;;;;;8.60;4.95;;;;;;;22.86;56.79;100683.95;1770881;80;22654;-84
2021/06/12 09:50:13;;;;;;;29.67;11.88;;;;;;;22.62;56.87;100682.80;1766885;80;21479;-84
2021/06/12 09:52:51;;;;;;;10.88;6.28;;;;;;;22.43;57.20;100677.47;1769389;80;21551;-83
2021/06/12 09:55:30;;;;;;;10.58;6.20;;;;;;;22.16;57.69;100678.54;1765569;79;20980;-83
2021/06/12 09:58:01;;;;;;;10.85;5.67;;;;;;;22.16;57.69;100678.54;1769087;80;21052;-82
2021/06/12 10:00:41;;;;;;;10.43;4.92;;;;;;;22.13;57.66;100686.68;1763818;80;21684;-83
2021/06/12 10:03:27;;;;;;;12.43;6.05;;;;;;;22.07;57.84;100682.34;1763835;79;21062;-83
2021/06/12 10:06:14;;;;;;;10.03;5.15;;;;;;;22.14;58.13;100687.08;1763176;80;21120;-83
2021/06/12 10:08:42;;;;;;;4.70;3.72;;;;;;;22.30;58.10;100695.69;1769582;80;21042;-83
2021/06/12 10:11:10;;;;;;;3.72;3.33;;;;;;;22.49;58.04;100684.91;1769503;80;21057;-83
2021/06/12 10:13:37;;;;;;;5.85;4.20;;;;;;;22.63;57.82;100687.23;1742871;80;21792;-83
2021/06/12 10:16:05;;;;;;;4.08;3.22;;;;;;;22.70;57.49;100687.49;1698292;83;21065;-83
2021/06/12 10:18:31;;;;;;;3.58;3.27;;;;;;;22.73;57.49;100687.89;1689226;84;21016;-83
2021/06/12 10:20:58;;;;;;;4.80;3.70;;;;;;;22.74;57.35;100675.35;1702152;83;21105;-83
2021/06/12 10:23:25;;;;;;;5.70;3.60;;;;;;;22.76;56.93;100673.50;1700094;83;21162;-83
2021/06/12 10:25:52;;;;;;;5.72;3.35;;;;;;;22.84;56.92;100683.56;1697508;84;21897;-83
2021/06/12 10:28:21;;;;;;;4.17;3.42;;;;;;;22.85;56.84;100679.97;1700321;83;21013;-83
2021/06/12 10:30:48;;;;;;;5.92;3.98;;;;;;;22.83;56.69;100675.11;1700092;84;21099;-83
2021/06/12 10:33:19;;;;;;;5.22;3.90;;;;;;;22.58;56.90;100657.41;1693787;84;21008;-83
2021/06/12 10:35:46;;;;;;;6.60;3.80;;;;;;;22.58;56.90;100657.41;1699742;83;21517;-83
2021/06/12 10:38:16;;;;;;;4.92;3.25;;;;;;;22.61;56.93;100670.77;1700471;83;21802;-83
2021/06/12 10:40:56;;;;;;;4.58;3.83;;;;;;;22.48;57.09;100668.38;1697350;84;21060;-83
2021/06/12 10:43:26;;;;;;;4.37;3.98;;;;;;;22.35;57.32;100662.04;1700415;84;21131;-84
2021/06/12 10:46:10;;;;;;;5.05;3.87;;;;;;;22.21;57.47;100666.39;1698564;84;21086;-84
2021/06/12 10:48:55;;;;;;;4.80;3.50;;;;;;;22.05;57.39;100665.86;1692026;84;21096;-83
2021/06/12 10:51:34;;;;;;;5.53;4.22;;;;;;;21.85;57.71;100668.55;1697775;84;21962;-83
2021/06/12 10:54:20;;;;;;;4.90;3.35;;;;;;;21.54;57.96;100684.42;1698650;84;21074;-84
2021/06/12 10:57:00;;;;;;;4.10;2.10;;;;;;;21.10;57.94;100708.47;1691876;84;21084;-85
2021/06/12 10:59:47;;;;;;;9.80;7.72;;;;;;;20.60;58.10;100706.26;1697859;84;21167;-86
2021/06/12 11:02:48;;;;;;;7.62;5.12;;;;;;;20.24;58.22;100711.73;1701349;82;21656;-85
2021/06/12 11:05:30;;;;;;;5.30;4.37;;;;;;;19.92;58.90;100706.41;1696616;83;21750;-84
2021/06/12 11:08:20;;;;;;;4.55;2.20;;;;;;;19.61;59.41;100696.09;1692824;84;21096;-84
2021/06/12 11:10:49;;;;;;;3.77;2.72;;;;;;;19.41;60.06;100697.70;1673353;84;21056;-84
2021/06/12 11:13:21;;;;;;;5.08;3.25;;;;;;;19.27;60.59;100696.97;1698191;83;21545;-84
2021/06/12 11:15:48;;;;;;;6.15;2.15;;;;;;;19.17;61.26;100702.88;1697721;84;21074;-84
2021/06/12 11:18:22;;;;;;;4.20;2.00;;;;;;;19.03;61.36;100699.91;1700346;83;21737;-82
2021/06/12 11:21:04;;;;;;;;;;;;;;;18.92;61.34;100699.14;1700822;83;21075;-83
2021/06/12 11:23:46;;;;;;;4.70;2.30;;;;;;;18.91;62.00;100683.14;1689060;84;20225;-82
2021/06/12 11:26:14;;;;;;;4.58;2.10;;;;;;;18.97;61.95;100685.28;1701131;82;21083;-82
2021/06/12 11:28:42;;;;;;;4.92;2.90;;;;;;;19.03;62.13;100678.99;1686949;85;21537;-83
2021/06/12 11:31:35;;;;;;;5.17;2.92;;;;;;;19.05;61.33;100675.89;1694223;84;22682;-83
2021/06/12 11:34:20;;;;;;;4.72;2.08;;;;;;;18.97;61.08;100665.73;1681242;84;21094;-82
2021/06/12 11:36:51;;;;;;;3.40;2.10;;;;;;;18.94;61.11;100658.66;1700017;84;21109;-83
2021/06/12 11:39:18;;;;;;;4.60;2.12;;;;;;;18.94;61.08;100645.32;1696919;84;21028;-83